createdAt,value
2022-11-16T00:03:23.931Z,19.81
2022-11-16T00:09:48.455Z,19.77
2022-11-16T00:16:12.964Z,19.72
2022-11-16T00:22:37.347Z,19.68
2022-11-16T00:29:02.188Z,19.64
2022-11-16T00:35:26.790Z,19.60
2022-11-16T00:41:51.293Z,19.57
2022-11-16T00:48:15.852Z,19.53
2022-11-16T00:54:40.351Z,19.48
2022-11-16T01:01:04.955Z,19.45
2022-11-16T01:07:29.595Z,19.41
2022-11-16T01:13:54.300Z,19.37
2022-11-16T01:20:18.716Z,19.33
2022-11-16T01:26:43.171Z,19.30
2022-11-16T01:33:00.609Z,19.26
2022-11-16T01:39:25.113Z,19.22
2022-11-16T01:45:49.626Z,19.18
2022-11-16T01:52:14.119Z,19.14
2022-11-16T01:58:38.633Z,19.11
2022-11-16T02:05:03.127Z,19.07
2022-11-16T02:11:32.366Z,19.03
2022-11-16T02:18:21.012Z,18.99
2022-11-16T02:24:25.029Z,18.95
2022-11-16T02:30:49.413Z,18.91
2022-11-16T02:37:13.684Z,18.87
2022-11-16T02:43:40.606Z,18.84
2022-11-16T02:50:05.038Z,18.80
2022-11-16T02:56:28.340Z,18.77
2022-11-16T03:02:55.315Z,18.74
2022-11-16T03:09:19.670Z,18.72
2022-11-16T03:15:43.962Z,18.68
2022-11-16T03:22:08.239Z,18.65
2022-11-16T03:28:38.697Z,18.62
2022-11-16T03:35:03.078Z,18.59
2022-11-16T03:41:27.360Z,18.56
2022-11-16T03:47:51.737Z,18.53
2022-11-16T03:54:16.109Z,18.50
2022-11-16T04:00:40.487Z,18.47
2022-11-16T04:07:03.431Z,18.45
2022-11-16T04:13:42.926Z,18.42
2022-11-16T04:19:57.900Z,18.40
2022-11-16T04:26:22.818Z,18.36
2022-11-16T04:32:45.641Z,18.32
2022-11-16T04:39:10.115Z,18.30
2022-11-16T04:45:35.752Z,18.28
2022-11-16T04:52:00.558Z,18.26
2022-11-16T04:58:24.935Z,18.24
2022-11-16T05:04:49.277Z,18.21
2022-11-16T05:11:13.559Z,18.18
2022-11-16T05:17:37.893Z,18.16
2022-11-16T05:24:00.869Z,18.13
2022-11-16T05:30:25.290Z,18.12
2022-11-16T05:36:52.525Z,18.09
2022-11-16T05:43:16.896Z,18.09
2022-11-16T05:49:41.417Z,18.13
2022-11-16T05:56:05.979Z,18.20
2022-11-16T06:02:30.427Z,18.31
2022-11-16T06:08:54.704Z,18.45
2022-11-16T06:15:19.035Z,18.59
2022-11-16T06:21:43.332Z,18.73
2022-11-16T06:28:08.308Z,18.85
2022-11-16T06:34:32.910Z,18.97
2022-11-16T06:40:57.332Z,19.08
2022-11-16T06:47:21.721Z,19.19
2022-11-16T06:53:48.902Z,19.28
2022-11-16T07:00:13.313Z,19.36
2022-11-16T07:06:37.601Z,19.44
2022-11-16T07:13:02.020Z,19.51
2022-11-16T07:19:26.425Z,19.57
2022-11-16T07:25:50.770Z,19.62
2022-11-16T07:32:15.082Z,19.69
2022-11-16T07:38:48.153Z,19.76
2022-11-16T07:45:12.496Z,19.81
2022-11-16T07:51:36.781Z,19.86
2022-11-16T07:58:01.081Z,19.91
2022-11-16T08:04:25.438Z,19.96
2022-11-16T08:10:49.774Z,20.03
2022-11-16T08:17:14.211Z,20.10
2022-11-16T08:23:41.166Z,20.20
2022-11-16T08:30:05.554Z,20.28
2022-11-16T08:36:29.808Z,20.35
2022-11-16T08:42:54.087Z,20.36
2022-11-16T08:49:18.479Z,20.36
2022-11-16T08:55:42.969Z,20.41
2022-11-16T09:02:13.271Z,20.49
2022-11-16T09:08:37.649Z,20.51
2022-11-16T09:15:02.071Z,20.54
2022-11-16T09:21:26.542Z,20.56
2022-11-16T09:27:50.831Z,20.58
2022-11-16T09:34:15.310Z,20.60
2022-11-16T09:40:39.604Z,20.63
2022-11-16T09:47:12.740Z,20.70
2022-11-16T09:53:45.974Z,20.73
2022-11-16T10:00:12.835Z,20.77
2022-11-16T10:06:39.808Z,20.84
2022-11-16T10:13:22.230Z,20.90
2022-11-16T10:20:08.173Z,20.96
2022-11-16T10:26:41.686Z,20.98
2022-11-16T10:33:27.200Z,21.07
2022-11-16T10:39:51.686Z,21.20
2022-11-16T10:46:14.494Z,21.30
2022-11-16T10:52:38.876Z,21.39
2022-11-16T10:59:03.421Z,21.47
2022-11-16T11:05:27.800Z,21.53
2022-11-16T11:11:50.514Z,21.60
2022-11-16T11:18:14.907Z,21.68
2022-11-16T11:24:44.827Z,21.75
2022-11-16T11:31:09.881Z,21.77
2022-11-16T11:37:39.959Z,21.79
2022-11-16T11:44:07.228Z,21.76
2022-11-16T11:50:31.611Z,21.69
2022-11-16T11:56:56.135Z,21.58
2022-11-16T12:03:20.585Z,21.49
2022-11-16T12:09:51.055Z,21.39
2022-11-16T12:16:20.440Z,21.28
2022-11-16T12:23:01.130Z,21.19
2022-11-16T12:29:25.435Z,21.10
2022-11-16T12:35:49.981Z,21.02
2022-11-16T12:42:11.462Z,20.93
2022-11-16T12:48:50.371Z,20.86
2022-11-16T12:55:26.678Z,20.79
2022-11-16T13:02:00.302Z,20.74
2022-11-16T13:08:28.314Z,20.73
2022-11-16T13:14:52.643Z,20.77
2022-11-16T13:21:18.914Z,20.82
2022-11-16T13:27:41.815Z,20.87
2022-11-16T13:34:12.708Z,20.91
2022-11-16T13:40:39.011Z,20.94
2022-11-16T13:47:03.305Z,20.98
2022-11-16T14:00:07.519Z,21.06
2022-11-16T14:06:34.930Z,21.09
2022-11-16T14:12:57.857Z,21.13
2022-11-16T14:19:22.228Z,21.18
2022-11-16T14:25:46.607Z,21.23
2022-11-16T14:32:11.129Z,21.28
2022-11-16T14:38:38.328Z,21.31
2022-11-16T14:45:02.712Z,21.31
2022-11-16T14:51:27.003Z,21.29
2022-11-16T14:58:00.601Z,21.27
2022-11-16T15:04:27.556Z,21.23
2022-11-16T15:10:52.821Z,21.19
2022-11-16T15:17:17.274Z,21.13
2022-11-16T15:23:42.374Z,21.09
2022-11-16T15:30:06.855Z,21.04
2022-11-16T15:36:34.102Z,20.97
2022-11-16T15:42:58.513Z,20.91
2022-11-16T15:49:22.854Z,20.86
2022-11-16T15:55:47.279Z,20.80
2022-11-16T16:02:11.659Z,20.75
2022-11-16T16:08:38.825Z,20.70
2022-11-16T16:15:08.915Z,20.66
2022-11-16T16:21:33.403Z,20.64
2022-11-16T16:27:57.917Z,20.67
2022-11-16T16:34:22.226Z,20.77
2022-11-16T16:40:46.711Z,20.84
2022-11-16T16:47:11.253Z,20.90
2022-11-16T16:53:36.044Z,20.94
2022-11-16T17:00:00.766Z,21.02
2022-11-16T17:06:25.174Z,21.09
2022-11-16T17:12:49.716Z,21.14
2022-11-16T17:19:14.059Z,21.18
2022-11-16T17:25:38.335Z,21.22
2022-11-16T17:31:59.175Z,21.25
2022-11-16T17:38:23.445Z,21.26
2022-11-16T17:44:47.789Z,21.25
2022-11-16T17:51:12.104Z,21.22
2022-11-16T17:57:36.469Z,21.18
2022-11-16T18:03:43.688Z,21.14
2022-11-16T18:10:08.152Z,21.08
2022-11-16T18:16:35.456Z,21.05
2022-11-16T18:22:59.739Z,21.00
2022-11-16T18:29:26.703Z,20.94
2022-11-16T18:35:51.077Z,20.91
2022-11-16T18:42:15.379Z,20.88
2022-11-16T18:48:39.721Z,20.85
2022-11-16T18:55:04.164Z,20.81
2022-11-16T19:01:28.519Z,20.77
2022-11-16T19:07:52.055Z,20.73
2022-11-16T19:14:16.399Z,20.69
2022-11-16T19:20:40.913Z,20.63
2022-11-16T19:26:57.796Z,20.59
2022-11-16T19:33:15.428Z,20.55
2022-11-16T19:39:39.807Z,20.51
2022-11-16T19:46:04.200Z,20.46
2022-11-16T19:52:28.533Z,20.43
2022-11-16T19:58:52.804Z,20.44
2022-11-16T20:05:17.177Z,20.49
2022-11-16T20:11:41.574Z,20.56
2022-11-16T20:18:05.872Z,20.65
2022-11-16T20:24:30.265Z,20.72
2022-11-16T20:30:54.685Z,20.78
2022-11-16T20:37:19.102Z,20.80
2022-11-16T20:43:43.411Z,20.86
2022-11-16T20:50:06.523Z,20.94
2022-11-16T20:56:30.912Z,21.02
2022-11-16T21:02:55.213Z,21.06
2022-11-16T21:09:19.525Z,21.11
2022-11-16T21:15:43.974Z,21.12
2022-11-16T21:21:57.090Z,21.12
2022-11-16T21:28:25.512Z,21.10
2022-11-16T21:34:50.145Z,21.08
2022-11-16T21:41:14.712Z,21.05
2022-11-16T21:47:39.063Z,21.03
2022-11-16T21:54:03.438Z,20.98
2022-11-16T22:00:27.859Z,20.94
2022-11-16T22:06:53.915Z,20.90
2022-11-16T22:13:18.406Z,20.84
2022-11-16T22:19:42.954Z,20.77
2022-11-16T22:26:07.664Z,20.69
2022-11-16T22:32:32.322Z,20.62
2022-11-16T22:38:56.826Z,20.56
2022-11-16T22:45:21.310Z,20.50
2022-11-16T22:52:01.203Z,20.44
2022-11-16T22:58:25.729Z,20.38
2022-11-16T23:04:50.309Z,20.30
2022-11-16T23:11:13.157Z,20.24
2022-11-16T23:17:37.686Z,20.17
2022-11-16T23:24:00.520Z,20.12
2022-11-16T23:30:24.846Z,20.06
2022-11-16T23:36:49.284Z,19.99
2022-11-16T23:43:12.046Z,19.93
2022-11-16T23:49:36.547Z,19.88
2022-11-16T23:56:05.546Z,19.82
